Terminal Aerodrome Forecast
Issued by NWS

Home | Current Version | Previous Version | Text Only | Print | Product List | Glossary On
Versions: 1 2 3 4 5 6 7 8 9 10 11 12 13 14 15 16 17
000
FTUS45 KRIW 021100
TAFLND
TAF
KLND 021126Z 0212/0312 25006KT P6SM FEW080 SCT150
     FM022200 02006KT P6SM VCSH SCT030 BKN060
     FM030300 35007KT 4SM -SN SCT008 OVC020
     FM030500 32006KT 1SM -SN OVC008=

USA.gov is the U.S. government's official web portal to all federal, state and local government web resources and services.